createdAt,value
2019-05-28T00:00:01.903Z,2.10
2019-05-28T00:02:20.687Z,2.27
2019-05-28T00:04:49.544Z,2.50
2019-05-28T00:07:18.334Z,1.90
2019-05-28T00:09:47.203Z,2.10
2019-05-28T00:12:15.988Z,1.83
2019-05-28T00:14:45.047Z,2.07
2019-05-28T00:17:13.830Z,2.40
2019-05-28T00:19:42.609Z,2.30
2019-05-28T00:22:11.391Z,2.40
2019-05-28T00:24:40.266Z,2.33
2019-05-28T00:27:09.214Z,2.27
2019-05-28T00:29:38.022Z,2.50
2019-05-28T00:32:06.788Z,2.63
2019-05-28T00:34:35.582Z,2.07
2019-05-28T00:37:04.734Z,2.80
2019-05-28T00:39:33.952Z,1.63
2019-05-28T00:42:02.789Z,2.20
2019-05-28T00:44:31.590Z,2.00
2019-05-28T00:47:00.597Z,2.00
2019-05-28T00:49:29.444Z,2.60
2019-05-28T00:51:58.338Z,2.30
2019-05-28T00:54:27.272Z,1.93
2019-05-28T00:56:57.023Z,2.10
2019-05-28T00:59:27.001Z,2.10
2019-05-28T01:01:55.920Z,2.27
2019-05-28T01:04:24.956Z,2.40
2019-05-28T01:07:00.651Z,2.10
2019-05-28T01:09:29.505Z,2.10
2019-05-28T01:11:58.378Z,2.00
2019-05-28T01:14:27.153Z,2.47
2019-05-28T01:16:56.181Z,2.20
2019-05-28T01:19:24.961Z,2.13
2019-05-28T01:21:53.759Z,2.20
2019-05-28T01:24:22.533Z,1.90
2019-05-28T01:26:51.575Z,1.80
2019-05-28T01:29:20.672Z,2.10
2019-05-28T01:31:49.470Z,2.10
2019-05-28T01:34:18.552Z,1.93
2019-05-28T01:36:47.340Z,2.00
2019-05-28T01:39:16.129Z,2.47
2019-05-28T01:41:44.926Z,2.10
2019-05-28T01:44:13.952Z,2.13
2019-05-28T01:46:42.758Z,2.00
2019-05-28T01:49:11.897Z,2.00
2019-05-28T01:51:40.688Z,2.20
2019-05-28T01:54:09.480Z,2.77
2019-05-28T01:56:38.275Z,2.50
2019-05-28T01:59:07.052Z,2.00
2019-05-28T02:01:35.865Z,2.37
2019-05-28T02:04:05.356Z,2.20
2019-05-28T02:06:34.222Z,2.37
2019-05-28T02:09:03.092Z,2.37
2019-05-28T02:11:31.951Z,2.37
2019-05-28T02:14:00.737Z,2.87
2019-05-28T02:16:29.542Z,2.30
2019-05-28T02:18:58.568Z,2.43
2019-05-28T02:21:27.680Z,2.60
2019-05-28T02:23:56.457Z,3.00
2019-05-28T02:26:25.248Z,2.47
2019-05-28T02:28:54.023Z,2.40
2019-05-28T02:31:27.695Z,2.77
2019-05-28T02:33:54.086Z,3.10
2019-05-28T02:36:22.879Z,2.43
2019-05-28T02:38:51.786Z,2.30
2019-05-28T02:41:20.966Z,2.87
2019-05-28T02:43:50.004Z,2.87
2019-05-28T02:46:18.897Z,2.63
2019-05-28T02:48:47.675Z,2.40
2019-05-28T02:51:18.058Z,3.40
2019-05-28T02:53:54.672Z,2.63
2019-05-28T02:56:26.207Z,2.37
2019-05-28T02:58:58.143Z,2.43
2019-05-28T03:01:42.745Z,2.37
2019-05-28T03:03:58.591Z,2.40
2019-05-28T03:06:30.381Z,2.33
2019-05-28T03:09:02.970Z,2.33
2019-05-28T03:11:32.028Z,2.60
2019-05-28T03:14:00.891Z,2.27
2019-05-28T03:16:33.275Z,2.40
2019-05-28T03:19:03.590Z,2.30
2019-05-28T03:21:35.155Z,2.60
2019-05-28T03:24:05.428Z,2.40
2019-05-28T03:26:34.380Z,2.97
2019-05-28T03:29:03.156Z,2.50
2019-05-28T03:31:32.358Z,2.33
2019-05-28T03:34:02.351Z,2.20
2019-05-28T03:36:32.867Z,2.73
2019-05-28T03:39:02.416Z,2.27
2019-05-28T03:41:31.600Z,2.60
2019-05-28T03:44:00.739Z,2.50
2019-05-28T03:46:29.626Z,2.33
2019-05-28T03:48:58.438Z,2.67
2019-05-28T03:51:27.218Z,2.70
2019-05-28T03:53:56.365Z,2.70
2019-05-28T03:56:25.135Z,2.47
2019-05-28T03:58:53.933Z,2.53
2019-05-28T04:01:22.713Z,2.33
2019-05-28T04:03:51.825Z,2.57
2019-05-28T04:06:20.596Z,2.60
2019-05-28T04:08:49.711Z,2.50
2019-05-28T04:11:18.800Z,2.93
2019-05-28T04:13:47.892Z,3.00
2019-05-28T04:16:17.104Z,2.50
2019-05-28T04:18:45.896Z,2.47
2019-05-28T04:21:14.683Z,3.33
2019-05-28T04:23:43.839Z,2.93
2019-05-28T04:26:12.968Z,2.73
2019-05-28T04:28:41.775Z,3.00
2019-05-28T04:31:10.568Z,2.63
2019-05-28T04:33:39.351Z,2.80
2019-05-28T04:36:08.128Z,2.57
2019-05-28T04:38:36.931Z,2.30
2019-05-28T04:41:05.729Z,2.30
2019-05-28T04:43:34.593Z,3.03
2019-05-28T04:46:03.781Z,3.53
2019-05-28T04:48:32.588Z,2.97
2019-05-28T04:51:01.683Z,3.13
2019-05-28T04:53:30.885Z,3.90
2019-05-28T04:55:59.664Z,2.57
2019-05-28T04:58:28.793Z,3.40
2019-05-28T05:00:57.867Z,2.80
2019-05-28T05:03:26.749Z,3.83
2019-05-28T05:05:55.929Z,4.17
2019-05-28T05:08:24.710Z,3.30
2019-05-28T05:10:53.481Z,3.00
2019-05-28T05:13:22.527Z,3.37
2019-05-28T05:15:51.555Z,3.13
2019-05-28T05:18:20.686Z,2.50
2019-05-28T05:20:49.627Z,3.00
2019-05-28T05:23:18.660Z,2.90
2019-05-28T05:25:47.443Z,3.10
2019-05-28T05:28:16.306Z,3.00
2019-05-28T05:30:45.078Z,4.07
2019-05-28T05:33:20.355Z,3.00
2019-05-28T05:35:44.875Z,3.90
2019-05-28T05:38:13.796Z,3.23
2019-05-28T05:40:42.664Z,3.63
2019-05-28T05:43:11.603Z,3.57
2019-05-28T05:45:40.420Z,3.80
2019-05-28T05:48:09.838Z,3.53
2019-05-28T05:50:38.936Z,3.87
2019-05-28T05:53:07.729Z,3.80
2019-05-28T05:55:36.505Z,3.80
2019-05-28T05:58:05.304Z,3.90
2019-05-28T06:00:34.142Z,3.70
2019-05-28T06:03:02.982Z,5.07
2019-05-28T06:05:32.085Z,4.87
2019-05-28T06:08:00.929Z,4.33
2019-05-28T06:10:29.881Z,5.00
2019-05-28T06:12:58.749Z,4.10
2019-05-28T06:15:27.643Z,4.23
2019-05-28T06:17:56.726Z,4.13
2019-05-28T06:20:26.059Z,4.77
2019-05-28T06:22:54.920Z,4.13
2019-05-28T06:25:23.883Z,4.73
2019-05-28T06:27:53.108Z,3.70
2019-05-28T06:30:22.158Z,4.17
2019-05-28T06:32:51.006Z,5.00
2019-05-28T06:35:20.140Z,4.30
2019-05-28T06:37:48.984Z,4.30
2019-05-28T06:40:18.484Z,4.53
2019-05-28T06:42:47.265Z,4.10
2019-05-28T06:45:16.405Z,4.80
2019-05-28T06:47:45.770Z,4.70
2019-05-28T06:50:15.310Z,5.83
2019-05-28T06:52:44.171Z,4.80
2019-05-28T06:55:12.964Z,4.70
2019-05-28T06:57:41.841Z,5.33
2019-05-28T07:00:11.320Z,4.80
2019-05-28T07:02:40.461Z,4.73
2019-05-28T07:05:09.652Z,5.43
2019-05-28T07:07:38.740Z,4.83
2019-05-28T07:10:08.214Z,5.47
2019-05-28T07:12:37.357Z,4.60
2019-05-28T07:15:06.752Z,5.07
2019-05-28T07:17:35.984Z,5.20
2019-05-28T07:20:05.912Z,5.00
2019-05-28T07:22:34.699Z,5.27
2019-05-28T07:25:04.694Z,6.00
2019-05-28T07:27:33.854Z,4.80
2019-05-28T07:30:02.702Z,5.03
2019-05-28T07:32:31.544Z,5.57
2019-05-28T07:35:00.337Z,5.60
2019-05-28T07:37:29.387Z,5.33
2019-05-28T07:39:58.527Z,5.37
2019-05-28T07:42:32.629Z,5.20
2019-05-28T07:44:57.884Z,5.13
2019-05-28T07:47:26.671Z,5.73
2019-05-28T07:49:55.804Z,4.43
2019-05-28T07:52:24.586Z,4.10
2019-05-28T07:54:53.620Z,4.30
2019-05-28T07:57:22.447Z,3.80
2019-05-28T07:59:51.589Z,4.23
2019-05-28T08:02:20.480Z,4.47
2019-05-28T08:04:49.381Z,4.93
2019-05-28T08:07:18.456Z,4.20
2019-05-28T08:09:47.256Z,4.63
2019-05-28T08:12:16.040Z,4.80
2019-05-28T08:14:44.921Z,4.43
2019-05-28T08:17:14.126Z,4.47
2019-05-28T08:19:42.947Z,4.57
2019-05-28T08:22:13.790Z,4.60
2019-05-28T08:24:42.541Z,3.90
2019-05-28T08:27:11.468Z,4.63
2019-05-28T08:29:40.622Z,5.23
2019-05-28T08:32:09.404Z,4.83
2019-05-28T08:34:38.212Z,4.43
2019-05-28T08:37:07.195Z,5.10
2019-05-28T08:39:36.123Z,5.00
2019-05-28T08:42:05.287Z,4.90
2019-05-28T08:44:34.086Z,4.80
2019-05-28T08:47:02.952Z,6.37
2019-05-28T08:49:32.261Z,5.13
2019-05-28T08:52:01.200Z,5.17
2019-05-28T08:54:29.990Z,5.10
2019-05-28T08:56:58.796Z,4.63
2019-05-28T08:59:27.593Z,4.93
2019-05-28T09:01:56.735Z,5.00
2019-05-28T09:04:25.635Z,5.43
2019-05-28T09:06:54.792Z,5.40
2019-05-28T09:09:23.895Z,4.97
2019-05-28T09:11:52.714Z,4.73
2019-05-28T09:14:21.566Z,5.27
2019-05-28T09:16:50.691Z,6.10
2019-05-28T09:19:19.547Z,5.33
2019-05-28T09:21:48.349Z,6.00
2019-05-28T09:24:17.216Z,5.70
2019-05-28T09:26:46.096Z,5.83
2019-05-28T09:29:14.875Z,5.23
2019-05-28T09:31:43.673Z,5.73
2019-05-28T09:34:12.440Z,5.23
2019-05-28T09:36:41.493Z,6.43
2019-05-28T09:39:10.288Z,6.13
2019-05-28T09:41:39.374Z,5.40
2019-05-28T09:44:08.237Z,5.47
2019-05-28T09:46:37.031Z,5.70
2019-05-28T09:49:06.152Z,5.23
2019-05-28T09:51:35.040Z,5.60
2019-05-28T09:54:04.228Z,6.07
2019-05-28T09:56:33.025Z,5.67
2019-05-28T09:59:01.879Z,5.87
2019-05-28T10:01:30.853Z,5.80
2019-05-28T10:03:59.739Z,5.50
2019-05-28T10:06:36.745Z,5.73
2019-05-28T10:08:59.136Z,5.27
2019-05-28T10:11:27.994Z,5.30
2019-05-28T10:13:56.772Z,4.70
2019-05-28T10:16:25.579Z,5.50
2019-05-28T10:18:54.449Z,6.43
2019-05-28T10:21:23.247Z,5.43
2019-05-28T10:23:52.118Z,5.57
2019-05-28T10:26:20.944Z,5.67
2019-05-28T10:28:50.605Z,5.27
2019-05-28T10:31:19.759Z,5.30
2019-05-28T10:33:48.593Z,5.30
2019-05-28T10:36:34.314Z,5.10
2019-05-28T10:38:47.967Z,4.90
2019-05-28T10:41:16.792Z,5.07
2019-05-28T10:43:46.049Z,11.67
2019-05-28T10:46:15.151Z,5.00
2019-05-28T10:48:44.015Z,4.63
2019-05-28T10:51:12.885Z,3.90
2019-05-28T10:53:42.032Z,4.37
2019-05-28T10:56:11.174Z,4.33
2019-05-28T10:58:40.405Z,4.37
2019-05-28T11:01:09.205Z,3.40
2019-05-28T11:03:38.297Z,4.40
2019-05-28T11:06:07.175Z,3.70
2019-05-28T11:08:36.020Z,3.20
2019-05-28T11:11:04.974Z,3.17
2019-05-28T11:13:34.248Z,3.00
2019-05-28T11:16:03.347Z,3.40
2019-05-28T11:18:32.129Z,3.57
2019-05-28T11:21:01.071Z,3.80
2019-05-28T11:23:29.948Z,3.40
2019-05-28T11:25:58.758Z,3.53
2019-05-28T11:28:28.161Z,3.17
2019-05-28T11:30:57.707Z,3.10
2019-05-28T11:33:26.921Z,2.90
2019-05-28T11:35:55.757Z,3.10
2019-05-28T11:38:24.577Z,3.67
2019-05-28T11:40:53.827Z,3.20
2019-05-28T11:43:22.898Z,3.57
2019-05-28T11:45:52.101Z,2.93
2019-05-28T11:48:20.902Z,2.93
2019-05-28T11:50:49.686Z,4.07
2019-05-28T11:53:18.553Z,3.20
2019-05-28T11:55:47.372Z,3.20
2019-05-28T11:58:16.224Z,2.90
2019-05-28T12:00:45.085Z,3.00
2019-05-28T12:03:13.959Z,3.00
2019-05-28T12:08:05.684Z,1.80
2019-05-28T12:10:34.868Z,2.40
2019-05-28T12:13:03.788Z,2.07
2019-05-28T12:15:32.661Z,2.87
2019-05-28T12:18:01.477Z,2.47
2019-05-28T12:20:32.253Z,2.60
2019-05-28T12:23:11.356Z,2.40
2019-05-28T12:25:31.625Z,1.97
2019-05-28T12:28:00.677Z,2.70
2019-05-28T12:30:29.709Z,2.57
2019-05-28T12:32:58.883Z,4.00
2019-05-28T12:35:30.041Z,2.37
2019-05-28T12:37:58.182Z,2.73
2019-05-28T12:40:27.242Z,2.47
2019-05-28T12:42:56.107Z,2.40
2019-05-28T12:45:34.807Z,2.23
2019-05-28T12:48:09.355Z,2.37
2019-05-28T12:50:27.554Z,2.60
2019-05-28T12:52:56.423Z,2.50
2019-05-28T12:55:25.279Z,1.90
2019-05-28T12:57:54.361Z,1.87
2019-05-28T13:00:24.185Z,2.17
2019-05-28T13:02:53.437Z,1.80
2019-05-28T13:05:24.644Z,2.10
2019-05-28T13:08:07.675Z,2.30
2019-05-28T13:10:24.609Z,1.90
2019-05-28T13:12:53.479Z,2.00
2019-05-28T13:15:22.412Z,1.97
2019-05-28T13:17:51.426Z,2.23
2019-05-28T13:20:20.817Z,1.90
2019-05-28T13:22:49.700Z,1.60
2019-05-28T13:25:18.681Z,1.40
2019-05-28T13:27:47.808Z,1.70
2019-05-28T13:30:17.367Z,2.00
2019-05-28T13:32:46.484Z,2.30
2019-05-28T13:35:16.777Z,1.93
2019-05-28T13:37:45.656Z,1.80
2019-05-28T13:40:15.137Z,1.83
2019-05-28T13:42:44.338Z,1.80
2019-05-28T13:45:15.434Z,1.43
2019-05-28T13:47:44.258Z,1.50
2019-05-28T13:50:14.344Z,1.90
2019-05-28T13:52:43.458Z,1.43
2019-05-28T13:55:14.180Z,1.63
2019-05-28T13:57:43.207Z,1.50
2019-05-28T14:00:13.113Z,1.30
2019-05-28T14:02:45.946Z,1.83
2019-05-28T14:05:13.285Z,1.40
2019-05-28T14:07:42.167Z,1.40
2019-05-28T14:10:13.245Z,1.80
2019-05-28T14:12:42.374Z,1.90
2019-05-28T14:15:13.005Z,1.57
2019-05-28T14:17:42.268Z,1.53
2019-05-28T14:20:11.991Z,1.90
2019-05-28T14:22:41.163Z,2.00
2019-05-28T14:25:10.720Z,1.50
2019-05-28T14:27:39.495Z,1.40
2019-05-28T14:30:10.050Z,1.30
2019-05-28T14:32:38.833Z,1.30
2019-05-28T14:35:08.073Z,1.50
2019-05-28T14:37:36.930Z,1.27
2019-05-28T14:40:06.496Z,1.10
2019-05-28T14:42:35.318Z,1.30
2019-05-28T14:45:04.916Z,1.10
2019-05-28T14:47:33.995Z,1.27
2019-05-28T14:50:03.253Z,1.30
2019-05-28T14:52:32.046Z,1.27
2019-05-28T14:55:00.840Z,1.30
2019-05-28T14:57:29.637Z,1.23
2019-05-28T14:59:58.443Z,1.20
2019-05-28T15:02:27.220Z,1.20
2019-05-28T15:04:56.120Z,1.13
2019-05-28T15:07:24.987Z,1.20
2019-05-28T15:09:53.811Z,1.20
2019-05-28T15:12:23.012Z,1.20
2019-05-28T15:14:51.917Z,1.27
2019-05-28T15:17:21.084Z,1.23
2019-05-28T15:19:49.882Z,1.37
2019-05-28T15:22:19.249Z,1.23
2019-05-28T15:24:49.900Z,0.93
2019-05-28T15:27:18.908Z,0.77
2019-05-28T15:29:47.810Z,1.10
2019-05-28T15:32:16.659Z,1.17
2019-05-28T15:34:45.829Z,1.10
2019-05-28T15:37:14.676Z,1.10
2019-05-28T15:39:43.615Z,1.60
2019-05-28T15:42:19.892Z,2.17
2019-05-28T15:44:43.283Z,1.80
2019-05-28T15:47:12.387Z,1.93
2019-05-28T15:49:41.988Z,1.73
2019-05-28T15:52:11.211Z,1.77
2019-05-28T15:54:40.287Z,2.00
2019-05-28T15:57:09.282Z,2.20
2019-05-28T15:59:38.276Z,1.90
2019-05-28T16:02:07.464Z,1.60
2019-05-28T16:04:36.533Z,1.67
2019-05-28T16:07:05.372Z,1.90
2019-05-28T16:09:34.157Z,2.10
2019-05-28T16:12:03.012Z,2.07
2019-05-28T16:14:32.223Z,2.13
2019-05-28T16:17:01.015Z,1.77
2019-05-28T16:19:30.072Z,2.20
2019-05-28T16:21:59.419Z,1.90
2019-05-28T16:24:28.252Z,1.87
2019-05-28T16:26:57.378Z,2.00
2019-05-28T16:29:26.588Z,1.73
2019-05-28T16:31:55.718Z,1.90
2019-05-28T16:34:24.968Z,1.80
2019-05-28T16:36:54.217Z,2.10
2019-05-28T16:39:23.608Z,2.50
2019-05-28T16:41:52.489Z,2.10
2019-05-28T16:44:21.537Z,2.10
2019-05-28T16:47:14.326Z,2.17
2019-05-28T16:49:21.237Z,2.30
2019-05-28T16:51:50.029Z,2.07
2019-05-28T16:54:19.730Z,2.47
2019-05-28T16:56:48.858Z,2.60
2019-05-28T16:59:17.637Z,2.23
2019-05-28T17:01:46.428Z,2.40
2019-05-28T17:04:15.211Z,2.40
2019-05-28T17:06:44.088Z,2.90
2019-05-28T17:09:12.942Z,3.70
2019-05-28T17:11:41.725Z,3.03
2019-05-28T17:14:10.513Z,3.00
2019-05-28T17:16:39.345Z,3.27
2019-05-28T17:19:08.128Z,2.43
2019-05-28T17:21:36.920Z,2.43
2019-05-28T17:24:05.911Z,2.53
2019-05-28T17:26:35.093Z,2.70
2019-05-28T17:29:04.130Z,3.30
2019-05-28T17:31:33.215Z,2.60
2019-05-28T17:34:02.224Z,2.83
2019-05-28T17:36:31.177Z,2.70
2019-05-28T17:39:00.561Z,2.50
2019-05-28T17:41:29.700Z,2.47
2019-05-28T17:43:58.762Z,2.63
2019-05-28T17:46:27.612Z,2.50
2019-05-28T17:48:56.400Z,2.50
2019-05-28T17:51:25.262Z,2.70
2019-05-28T17:53:54.031Z,2.73
2019-05-28T17:56:22.815Z,2.47
2019-05-28T17:58:51.705Z,2.77
2019-05-28T18:01:20.757Z,2.90
2019-05-28T18:03:49.839Z,2.90
2019-05-28T18:06:18.879Z,2.57
2019-05-28T18:08:47.679Z,2.60
2019-05-28T18:11:16.466Z,2.60
2019-05-28T18:13:45.247Z,3.13
2019-05-28T18:16:14.045Z,2.90
2019-05-28T18:18:42.830Z,2.73
2019-05-28T18:21:12.298Z,2.80
2019-05-28T18:23:41.074Z,2.73
2019-05-28T18:26:10.108Z,3.30
2019-05-28T18:28:38.867Z,3.10
2019-05-28T18:31:07.655Z,3.07
2019-05-28T18:33:36.528Z,2.70
2019-05-28T18:36:05.392Z,3.17
2019-05-28T18:38:34.185Z,4.20
2019-05-28T18:41:03.164Z,3.43
2019-05-28T18:43:32.324Z,3.27
2019-05-28T18:46:01.717Z,2.67
2019-05-28T18:48:30.482Z,3.30
2019-05-28T18:50:59.495Z,3.10
2019-05-28T18:53:28.245Z,3.10
2019-05-28T18:55:57.264Z,3.27
2019-05-28T18:58:26.480Z,2.87
2019-05-28T19:00:55.541Z,2.70
2019-05-28T19:03:24.853Z,2.90
2019-05-28T19:05:53.636Z,2.80
2019-05-28T19:08:22.440Z,2.40
2019-05-28T19:10:51.264Z,2.60
2019-05-28T19:13:20.026Z,2.70
2019-05-28T19:15:48.885Z,2.57
2019-05-28T19:18:17.712Z,2.87
2019-05-28T19:20:46.712Z,2.33
2019-05-28T19:23:15.485Z,2.60
2019-05-28T19:25:44.752Z,2.40
2019-05-28T19:28:13.517Z,2.77
2019-05-28T19:30:42.358Z,2.27
2019-05-28T19:33:11.278Z,3.07
2019-05-28T19:35:40.292Z,2.73
2019-05-28T19:38:09.072Z,2.30
2019-05-28T19:40:39.226Z,2.77
2019-05-28T19:43:08.155Z,2.57
2019-05-28T19:45:37.745Z,2.87
2019-05-28T19:48:07.516Z,2.40
2019-05-28T19:50:36.380Z,2.57
2019-05-28T19:53:05.438Z,2.70
2019-05-28T19:55:34.557Z,2.43
2019-05-28T19:58:03.750Z,2.70
2019-05-28T20:00:32.829Z,2.20
2019-05-28T20:03:01.659Z,2.60
2019-05-28T20:05:30.818Z,2.43
2019-05-28T20:07:59.762Z,2.60
2019-05-28T20:10:29.213Z,2.53
2019-05-28T20:12:58.312Z,2.40
2019-05-28T20:15:27.305Z,2.40
2019-05-28T20:17:56.755Z,2.27
2019-05-28T20:20:26.047Z,2.53
2019-05-28T20:22:56.062Z,4.47
2019-05-28T20:25:25.168Z,2.70
2019-05-28T20:27:54.008Z,2.40
2019-05-28T20:30:23.493Z,2.17
2019-05-28T20:32:54.972Z,1.93
2019-05-28T20:35:22.795Z,1.63
2019-05-28T20:37:51.603Z,1.90
2019-05-28T20:40:20.663Z,1.50
2019-05-28T20:42:49.550Z,1.60
2019-05-28T20:45:18.772Z,1.83
2019-05-28T20:47:47.673Z,1.50
2019-05-28T20:50:16.918Z,1.53
2019-05-28T20:52:45.716Z,2.07
2019-05-28T20:55:14.842Z,1.67
2019-05-28T20:57:43.727Z,1.50
2019-05-28T21:00:13.048Z,1.73
2019-05-28T21:02:42.001Z,1.63
2019-05-28T21:05:11.143Z,1.43
2019-05-28T21:07:40.355Z,1.73
2019-05-28T21:10:09.803Z,1.40
2019-05-28T21:12:44.578Z,2.10
2019-05-28T21:15:09.993Z,1.40
2019-05-28T21:17:39.145Z,1.60
2019-05-28T21:20:08.307Z,1.50
2019-05-28T21:22:37.347Z,1.53
2019-05-28T21:25:07.384Z,1.30
2019-05-28T21:27:36.338Z,1.60
2019-05-28T21:30:05.939Z,1.10
2019-05-28T21:32:34.791Z,1.10
2019-05-28T21:35:03.735Z,1.20
2019-05-28T21:37:32.504Z,1.30
2019-05-28T21:40:02.071Z,1.30
2019-05-28T21:42:31.286Z,1.40
2019-05-28T21:45:00.405Z,1.70
2019-05-28T21:47:29.442Z,1.40
2019-05-28T21:49:59.458Z,1.30
2019-05-28T21:52:28.678Z,2.23
2019-05-28T21:54:57.572Z,1.30
2019-05-28T21:57:26.619Z,1.70
2019-05-28T21:59:55.740Z,1.80
2019-05-28T22:02:25.018Z,1.67
2019-05-28T22:04:55.232Z,1.73
2019-05-28T22:07:24.736Z,1.63
2019-05-28T22:09:53.551Z,1.63
2019-05-28T22:12:22.405Z,1.70
2019-05-28T22:14:51.368Z,1.70
2019-05-28T22:17:20.136Z,1.80
2019-05-28T22:19:48.919Z,1.97
2019-05-28T22:22:17.988Z,1.70
2019-05-28T22:24:46.782Z,1.30
2019-05-28T22:27:15.864Z,1.70
2019-05-28T22:29:44.682Z,1.60
2019-05-28T22:32:13.461Z,1.07
2019-05-28T22:34:42.500Z,1.30
2019-05-28T22:37:11.521Z,1.30
2019-05-28T22:39:40.305Z,1.60
2019-05-28T22:42:09.147Z,1.50
2019-05-28T22:44:38.304Z,1.50
2019-05-28T22:47:07.339Z,1.33
2019-05-28T22:49:36.335Z,1.40
2019-05-28T22:52:06.032Z,1.07
2019-05-28T22:54:34.947Z,1.30
2019-05-28T22:57:05.629Z,1.30
2019-05-28T22:59:36.511Z,1.33
2019-05-28T23:02:05.482Z,1.53
2019-05-28T23:04:34.543Z,1.40
2019-05-28T23:07:03.433Z,1.40
2019-05-28T23:09:32.535Z,1.43
2019-05-28T23:12:01.664Z,1.10
2019-05-28T23:14:30.527Z,1.20
2019-05-28T23:17:00.243Z,1.33
2019-05-28T23:19:29.179Z,1.50
2019-05-28T23:21:57.955Z,1.17
2019-05-28T23:24:27.116Z,1.47
2019-05-28T23:26:55.961Z,1.47
2019-05-28T23:29:24.747Z,1.47
2019-05-28T23:31:53.507Z,1.17
2019-05-28T23:34:22.677Z,1.57
2019-05-28T23:36:51.474Z,1.60
2019-05-28T23:39:20.549Z,1.90
2019-05-28T23:41:49.324Z,1.20
2019-05-28T23:44:18.094Z,1.43
2019-05-28T23:46:46.870Z,1.00
2019-05-28T23:49:15.735Z,1.37
2019-05-28T23:51:44.575Z,1.33
2019-05-28T23:54:13.955Z,1.27
2019-05-28T23:56:42.800Z,1.27
2019-05-28T23:59:11.840Z,1.53
